createdAt,value
2022-10-05T00:00:50.066Z,37.87
2022-10-05T00:01:50.116Z,35.45
2022-10-05T00:02:50.026Z,34.16
2022-10-05T00:03:50.068Z,36.09
2022-10-05T00:04:50.025Z,39.32
2022-10-05T00:05:50.011Z,35.61
2022-10-05T00:06:49.977Z,36.42
2022-10-05T00:07:49.944Z,37.38
2022-10-05T00:08:49.927Z,40.28
2022-10-05T00:09:49.957Z,40.93
2022-10-05T00:10:49.903Z,40.12
2022-10-05T00:11:49.909Z,35.93
2022-10-05T00:12:49.992Z,38.19
2022-10-05T00:13:49.923Z,38.19
2022-10-05T00:14:49.895Z,39.80
2022-10-05T00:15:49.869Z,38.67
2022-10-05T00:16:50.387Z,37.71
2022-10-05T00:17:49.801Z,40.28
2022-10-05T00:18:49.864Z,37.22
2022-10-05T00:19:48.800Z,34.80
2022-10-05T00:20:49.811Z,35.77
2022-10-05T00:21:49.814Z,44.15
2022-10-05T00:22:49.811Z,35.45
2022-10-05T00:23:49.801Z,35.93
2022-10-05T00:24:49.718Z,39.16
2022-10-05T00:25:49.704Z,36.09
2022-10-05T00:26:54.007Z,36.90
2022-10-05T00:27:49.677Z,35.45
2022-10-05T00:28:49.721Z,35.29
2022-10-05T00:29:49.710Z,36.25
2022-10-05T00:30:49.653Z,35.61
2022-10-05T00:31:49.682Z,37.54
2022-10-05T00:32:49.657Z,36.58
2022-10-05T00:33:49.630Z,37.38
2022-10-05T00:34:49.632Z,36.58
2022-10-05T00:35:49.711Z,37.71
2022-10-05T00:36:49.936Z,35.45
2022-10-05T00:37:49.538Z,38.03
2022-10-05T00:38:49.633Z,40.61
2022-10-05T00:39:49.516Z,44.63
2022-10-05T00:40:49.510Z,35.93
2022-10-05T00:41:49.531Z,36.09
2022-10-05T00:42:49.523Z,35.93
2022-10-05T00:43:49.490Z,36.42
2022-10-05T00:44:49.462Z,38.51
2022-10-05T00:45:49.507Z,35.13
2022-10-05T00:46:49.481Z,36.09
2022-10-05T00:47:49.472Z,35.13
2022-10-05T00:48:49.437Z,35.77
2022-10-05T00:49:49.380Z,36.90
2022-10-05T00:50:49.390Z,42.70
2022-10-05T00:51:49.732Z,35.77
2022-10-05T00:52:49.495Z,42.22
2022-10-05T00:53:49.374Z,40.12
2022-10-05T00:54:49.317Z,36.90
2022-10-05T00:55:49.330Z,36.90
2022-10-05T00:56:49.304Z,36.42
2022-10-05T00:57:49.282Z,38.83
2022-10-05T00:58:49.277Z,40.61
2022-10-05T00:59:49.249Z,35.13
2022-10-05T01:00:49.291Z,34.97
2022-10-05T01:01:49.319Z,35.61
2022-10-05T01:02:49.246Z,56.07
2022-10-05T01:03:49.193Z,36.09
2022-10-05T01:04:49.180Z,38.51
2022-10-05T01:05:49.205Z,35.93
2022-10-05T01:06:49.198Z,40.77
2022-10-05T01:07:49.153Z,36.58
2022-10-05T01:08:49.176Z,37.38
2022-10-05T01:09:49.113Z,36.42
2022-10-05T01:10:49.160Z,37.87
2022-10-05T01:11:49.091Z,37.87
2022-10-05T01:12:49.084Z,36.42
2022-10-05T01:13:49.076Z,38.51
2022-10-05T01:14:49.081Z,35.77
2022-10-05T01:15:49.041Z,37.06
2022-10-05T01:16:49.607Z,36.25
2022-10-05T01:17:49.017Z,35.13
2022-10-05T01:18:49.047Z,36.42
2022-10-05T01:19:48.972Z,35.45
2022-10-05T01:20:49.039Z,39.16
2022-10-05T01:21:48.976Z,46.25
2022-10-05T01:22:48.953Z,35.13
2022-10-05T01:23:48.964Z,39.48
2022-10-05T01:24:49.043Z,38.03
2022-10-05T01:25:48.903Z,36.42
2022-10-05T01:26:49.276Z,35.61
2022-10-05T01:27:48.912Z,36.58
2022-10-05T01:28:48.897Z,36.25
2022-10-05T01:29:48.845Z,35.77
2022-10-05T01:30:48.843Z,34.97
2022-10-05T01:31:48.907Z,35.93
2022-10-05T01:32:48.872Z,35.29
2022-10-05T01:33:49.009Z,40.44
2022-10-05T01:34:48.834Z,41.09
2022-10-05T01:35:48.774Z,35.61
2022-10-05T01:36:49.179Z,34.97
2022-10-05T01:37:48.904Z,37.54
2022-10-05T01:38:48.776Z,34.97
2022-10-05T01:39:48.806Z,35.77
2022-10-05T01:40:48.721Z,35.13
2022-10-05T01:41:48.733Z,35.13
2022-10-05T01:42:48.688Z,49.63
2022-10-05T01:43:48.669Z,35.45
2022-10-05T01:44:48.678Z,35.93
2022-10-05T01:45:48.757Z,35.13
2022-10-05T01:46:49.043Z,35.45
2022-10-05T01:47:48.616Z,36.42
2022-10-05T01:48:48.637Z,44.63
2022-10-05T01:49:48.591Z,37.71
2022-10-05T01:50:48.612Z,38.51
2022-10-05T01:51:48.578Z,38.83
2022-10-05T01:52:48.602Z,35.77
2022-10-05T01:53:48.558Z,38.51
2022-10-05T01:54:48.536Z,36.09
2022-10-05T01:55:48.508Z,39.80
2022-10-05T01:56:48.886Z,37.06
2022-10-05T01:57:48.561Z,37.38
2022-10-05T01:58:48.481Z,39.16
2022-10-05T01:59:48.506Z,41.41
2022-10-05T02:00:48.484Z,36.42
2022-10-05T02:01:48.568Z,47.53
2022-10-05T02:02:48.459Z,44.63
2022-10-05T02:03:48.433Z,42.70
2022-10-05T02:05:03.721Z,35.77
2022-10-05T02:05:48.407Z,42.54
2022-10-05T02:06:48.799Z,35.61
2022-10-05T02:07:48.386Z,38.35
2022-10-05T02:08:48.373Z,74.77
2022-10-05T02:09:48.417Z,39.48
2022-10-05T02:10:48.319Z,37.87
2022-10-05T02:11:48.305Z,38.35
2022-10-05T02:12:48.295Z,37.06
2022-10-05T02:13:47.316Z,35.45
2022-10-05T02:14:48.282Z,38.83
2022-10-05T02:15:48.310Z,48.50
2022-10-05T02:16:48.729Z,38.83
2022-10-05T02:17:48.213Z,38.99
2022-10-05T02:18:48.209Z,37.54
2022-10-05T02:19:48.173Z,37.22
2022-10-05T02:20:48.196Z,48.34
2022-10-05T02:21:48.187Z,36.42
2022-10-05T02:22:48.204Z,34.80
2022-10-05T02:23:48.169Z,52.53
2022-10-05T02:24:48.125Z,35.45
2022-10-05T02:25:48.123Z,37.71
2022-10-05T02:26:48.591Z,39.96
2022-10-05T02:27:48.088Z,54.30
2022-10-05T02:28:48.156Z,35.61
2022-10-05T02:29:48.092Z,55.43
2022-10-05T02:30:48.059Z,39.64
2022-10-05T02:31:48.171Z,37.54
2022-10-05T02:32:48.137Z,35.13
2022-10-05T02:33:48.002Z,36.25
2022-10-05T02:34:48.026Z,38.51
2022-10-05T02:35:48.005Z,36.90
2022-10-05T02:36:48.441Z,36.74
2022-10-05T02:37:47.959Z,35.13
2022-10-05T02:38:47.931Z,37.38
2022-10-05T02:39:47.915Z,37.38
2022-10-05T02:40:47.903Z,38.99
2022-10-05T02:41:47.904Z,38.51
2022-10-05T02:42:47.961Z,37.38
2022-10-05T02:43:47.872Z,44.63
2022-10-05T02:44:47.857Z,36.90
2022-10-05T02:45:47.954Z,53.82
2022-10-05T02:46:50.774Z,38.19
2022-10-05T02:47:47.915Z,41.25
2022-10-05T02:48:47.803Z,38.99
2022-10-05T02:49:47.801Z,40.61
2022-10-05T02:50:47.770Z,41.73
2022-10-05T02:51:47.806Z,40.61
2022-10-05T02:52:47.771Z,45.92
2022-10-05T02:53:47.730Z,50.11
2022-10-05T02:54:47.729Z,42.06
2022-10-05T02:55:47.707Z,43.67
2022-10-05T02:56:48.355Z,39.16
2022-10-05T02:57:47.774Z,41.25
2022-10-05T02:58:47.673Z,38.83
2022-10-05T02:59:47.691Z,43.34
2022-10-05T03:00:47.774Z,42.06
2022-10-05T03:01:47.670Z,42.54
2022-10-05T03:02:47.633Z,43.18
2022-10-05T03:03:47.598Z,39.32
2022-10-05T03:04:47.628Z,44.15
2022-10-05T03:05:47.606Z,49.79
2022-10-05T03:06:47.976Z,41.41
2022-10-05T03:07:47.546Z,38.35
2022-10-05T03:08:47.615Z,38.51
2022-10-05T03:09:47.529Z,39.80
2022-10-05T03:10:47.522Z,41.73
2022-10-05T03:11:47.508Z,57.04
2022-10-05T03:12:47.502Z,41.09
2022-10-05T03:13:47.486Z,42.06
2022-10-05T03:14:47.453Z,43.51
2022-10-05T03:15:47.504Z,42.06
2022-10-05T03:16:48.001Z,57.52
2022-10-05T03:17:47.493Z,56.24
2022-10-05T03:18:47.409Z,55.59
2022-10-05T03:19:47.425Z,57.85
2022-10-05T03:20:47.452Z,42.22
2022-10-05T03:21:47.391Z,44.15
2022-10-05T03:22:47.382Z,59.62
2022-10-05T03:23:47.358Z,47.70
2022-10-05T03:24:47.332Z,44.47
2022-10-05T03:25:47.329Z,72.35
2022-10-05T03:26:47.636Z,57.04
2022-10-05T03:27:47.330Z,41.57
2022-10-05T03:28:47.275Z,57.52
2022-10-05T03:29:47.262Z,43.18
2022-10-05T03:30:47.284Z,42.06
2022-10-05T03:31:47.237Z,43.34
2022-10-05T03:32:47.276Z,39.16
2022-10-05T03:33:47.278Z,42.86
2022-10-05T03:34:47.232Z,39.48
2022-10-05T03:35:47.220Z,63.97
2022-10-05T03:36:47.570Z,48.18
2022-10-05T03:37:47.196Z,63.81
2022-10-05T03:38:47.188Z,43.51
2022-10-05T03:39:47.132Z,43.51
2022-10-05T03:40:47.117Z,46.25
2022-10-05T03:41:47.122Z,47.53
2022-10-05T03:42:47.125Z,57.36
2022-10-05T03:43:47.168Z,43.18
2022-10-05T03:44:47.073Z,43.83
2022-10-05T03:45:47.109Z,74.44
2022-10-05T03:46:47.435Z,69.77
2022-10-05T03:47:47.063Z,49.47
2022-10-05T03:48:47.014Z,43.02
2022-10-05T03:49:46.986Z,45.28
2022-10-05T03:50:47.027Z,44.63
2022-10-05T03:51:46.987Z,43.83
2022-10-05T03:52:47.017Z,54.30
2022-10-05T03:53:47.012Z,42.06
2022-10-05T03:54:46.919Z,46.25
2022-10-05T03:55:46.969Z,50.76
2022-10-05T03:56:47.299Z,40.77
2022-10-05T03:57:46.899Z,57.04
2022-10-05T03:58:46.883Z,55.59
2022-10-05T03:59:46.947Z,41.57
2022-10-05T04:00:46.830Z,55.27
2022-10-05T04:01:46.943Z,44.96
2022-10-05T04:02:46.929Z,48.66
2022-10-05T04:03:46.896Z,43.83
2022-10-05T04:04:46.810Z,43.67
2022-10-05T04:05:46.788Z,66.71
2022-10-05T04:06:47.137Z,73.64
2022-10-05T04:07:46.801Z,54.46
2022-10-05T04:08:48.024Z,55.11
2022-10-05T04:09:46.723Z,44.15
2022-10-05T04:10:46.770Z,67.84
2022-10-05T04:11:46.733Z,44.79
2022-10-05T04:12:46.735Z,47.70
2022-10-05T04:13:46.683Z,44.15
2022-10-05T04:14:46.721Z,43.99
2022-10-05T04:15:46.707Z,48.34
2022-10-05T04:16:48.758Z,44.79
2022-10-05T04:17:46.613Z,45.60
2022-10-05T04:18:46.693Z,59.94
2022-10-05T04:19:46.621Z,66.06
2022-10-05T04:20:46.578Z,46.89
2022-10-05T04:21:46.558Z,43.67
2022-10-05T04:22:46.572Z,46.25
2022-10-05T04:23:46.570Z,67.51
2022-10-05T04:24:46.512Z,67.68
2022-10-05T04:25:46.584Z,43.83
2022-10-05T04:26:46.950Z,56.88
2022-10-05T04:27:46.487Z,60.26
2022-10-05T04:28:46.573Z,49.31
2022-10-05T04:29:46.499Z,76.54
2022-10-05T04:30:46.458Z,48.02
2022-10-05T04:31:46.474Z,58.81
2022-10-05T04:32:46.420Z,59.78
2022-10-05T04:33:46.435Z,56.56
2022-10-05T04:34:46.402Z,71.54
2022-10-05T04:35:46.410Z,66.23
2022-10-05T04:36:46.582Z,62.84
2022-10-05T04:37:46.778Z,77.83
2022-10-05T04:38:46.342Z,51.72
2022-10-05T04:39:46.359Z,54.79
2022-10-05T04:40:46.342Z,54.62
2022-10-05T04:41:46.352Z,59.94
2022-10-05T04:42:46.272Z,54.62
2022-10-05T04:43:46.321Z,44.31
2022-10-05T04:44:46.268Z,45.44
2022-10-05T04:45:46.242Z,57.52
2022-10-05T04:46:46.511Z,74.28
2022-10-05T04:47:46.276Z,60.10
2022-10-05T04:48:46.251Z,71.22
2022-10-05T04:49:46.177Z,72.51
2022-10-05T04:50:46.179Z,71.06
2022-10-05T04:51:50.874Z,72.51
2022-10-05T04:52:46.139Z,70.25
2022-10-05T04:53:46.194Z,67.84
2022-10-05T04:54:46.133Z,56.07
2022-10-05T04:55:46.141Z,58.01
2022-10-05T04:56:46.419Z,66.23
2022-10-05T04:57:46.133Z,61.07
2022-10-05T04:58:46.078Z,61.07
2022-10-05T04:59:46.050Z,52.05
2022-10-05T05:00:46.264Z,53.82
2022-10-05T05:01:46.035Z,64.94
2022-10-05T05:02:46.023Z,69.77
2022-10-05T05:03:46.146Z,53.01
2022-10-05T05:04:50.818Z,68.48
2022-10-05T05:06:12.109Z,52.05
2022-10-05T05:06:46.260Z,68.48
2022-10-05T05:07:45.941Z,61.39
2022-10-05T05:08:45.935Z,52.69
2022-10-05T05:09:45.907Z,53.98
2022-10-05T05:10:45.897Z,54.46
2022-10-05T05:11:45.915Z,70.25
2022-10-05T05:12:45.890Z,48.50
2022-10-05T05:13:45.926Z,69.77
2022-10-05T05:14:45.857Z,65.42
2022-10-05T05:15:45.856Z,59.94
2022-10-05T05:16:46.101Z,68.00
2022-10-05T05:17:45.815Z,49.47
2022-10-05T05:18:45.795Z,66.06
2022-10-05T05:19:45.769Z,53.98
2022-10-05T05:20:45.806Z,50.92
2022-10-05T05:21:45.740Z,64.45
2022-10-05T05:22:45.717Z,51.72
2022-10-05T05:23:45.804Z,53.98
2022-10-05T05:24:45.699Z,68.00
2022-10-05T05:25:45.729Z,57.52
2022-10-05T05:26:45.778Z,49.47
2022-10-05T05:27:45.662Z,69.45
2022-10-05T05:28:45.641Z,53.50
2022-10-05T05:29:45.647Z,57.85
2022-10-05T05:30:45.620Z,73.48
2022-10-05T05:31:45.742Z,52.85
2022-10-05T05:32:45.620Z,74.77
2022-10-05T05:33:45.661Z,55.59
2022-10-05T05:34:45.594Z,57.36
2022-10-05T05:35:45.580Z,62.52
2022-10-05T05:36:45.841Z,67.35
2022-10-05T05:37:45.517Z,59.62
2022-10-05T05:38:45.557Z,53.01
2022-10-05T05:39:45.503Z,68.16
2022-10-05T05:40:45.562Z,64.13
2022-10-05T05:41:45.481Z,51.08
2022-10-05T05:42:45.472Z,72.51
2022-10-05T05:43:45.461Z,52.37
2022-10-05T05:44:45.454Z,64.45
2022-10-05T05:45:45.427Z,54.46
2022-10-05T05:47:03.089Z,55.27
2022-10-05T05:47:45.457Z,72.03
2022-10-05T05:48:45.382Z,66.71
2022-10-05T05:49:45.376Z,68.00
2022-10-05T05:50:45.404Z,54.62
2022-10-05T05:51:45.333Z,68.16
2022-10-05T05:52:45.317Z,73.15
2022-10-05T05:53:45.292Z,67.68
2022-10-05T05:54:45.311Z,72.99
2022-10-05T05:55:45.309Z,71.22
2022-10-05T05:56:45.550Z,54.30
2022-10-05T05:57:45.244Z,68.32
2022-10-05T05:58:45.313Z,66.06
2022-10-05T05:59:45.245Z,69.77
2022-10-05T06:00:45.232Z,50.76
2022-10-05T06:01:45.322Z,62.20
2022-10-05T06:02:45.361Z,59.94
2022-10-05T06:03:45.210Z,56.40
2022-10-05T06:04:45.162Z,54.62
2022-10-05T06:05:45.179Z,64.78
2022-10-05T06:06:45.482Z,59.78
2022-10-05T06:07:45.108Z,58.17
2022-10-05T06:08:45.099Z,57.52
2022-10-05T06:09:45.088Z,73.96
2022-10-05T06:10:45.089Z,53.01
2022-10-05T06:11:45.069Z,74.93
2022-10-05T06:12:45.041Z,67.68
2022-10-05T06:13:45.140Z,54.62
2022-10-05T06:14:45.043Z,54.79
2022-10-05T06:15:45.010Z,60.10
2022-10-05T06:16:45.473Z,60.10
2022-10-05T06:17:45.014Z,62.04
2022-10-05T06:18:44.984Z,71.38
2022-10-05T06:19:44.941Z,61.87
2022-10-05T06:20:44.929Z,51.88
2022-10-05T06:21:44.916Z,77.50
2022-10-05T06:22:44.965Z,59.62
2022-10-05T06:23:44.889Z,55.59
2022-10-05T06:24:44.882Z,61.71
2022-10-05T06:25:46.895Z,55.11
2022-10-05T06:26:45.126Z,57.69
2022-10-05T06:27:44.868Z,49.95
2022-10-05T06:28:44.837Z,62.68
2022-10-05T06:29:44.857Z,67.03
2022-10-05T06:30:44.840Z,56.88
2022-10-05T06:31:44.896Z,65.10
2022-10-05T06:32:44.772Z,70.74
2022-10-05T06:33:44.774Z,55.75
2022-10-05T06:34:44.820Z,71.54
2022-10-05T06:35:44.763Z,61.07
2022-10-05T06:36:45.022Z,53.50
2022-10-05T06:37:44.776Z,43.99
2022-10-05T06:38:44.679Z,66.87
2022-10-05T06:39:44.729Z,67.03
2022-10-05T06:40:44.800Z,52.69
2022-10-05T06:41:44.648Z,72.51
2022-10-05T06:42:44.661Z,58.81
2022-10-05T06:43:44.706Z,56.56
2022-10-05T06:44:44.708Z,62.52
2022-10-05T06:45:44.733Z,52.69
2022-10-05T06:46:44.879Z,47.21
2022-10-05T06:47:44.572Z,74.44
2022-10-05T06:48:44.540Z,55.91
2022-10-05T06:49:44.575Z,56.56
2022-10-05T06:50:44.556Z,59.94
2022-10-05T06:51:44.501Z,58.97
2022-10-05T06:52:44.493Z,72.67
2022-10-05T06:53:44.498Z,71.22
2022-10-05T06:54:44.526Z,61.07
2022-10-05T06:55:44.484Z,65.74
2022-10-05T06:56:44.811Z,71.38
2022-10-05T06:57:44.404Z,65.42
2022-10-05T06:58:44.401Z,71.06
2022-10-05T06:59:44.445Z,55.59
2022-10-05T07:00:44.455Z,72.83
2022-10-05T07:01:44.678Z,70.42
2022-10-05T07:02:44.359Z,67.68
2022-10-05T07:03:44.392Z,49.95
2022-10-05T07:04:44.307Z,63.81
2022-10-05T07:05:44.343Z,70.74
2022-10-05T07:06:44.310Z,68.32
2022-10-05T07:07:44.300Z,53.50
2022-10-05T07:08:44.263Z,61.87
2022-10-05T07:09:44.274Z,57.04
2022-10-05T07:10:44.225Z,62.68
2022-10-05T07:11:44.724Z,68.16
2022-10-05T07:12:44.199Z,55.59
2022-10-05T07:13:44.198Z,43.51
2022-10-05T07:14:44.221Z,55.11
2022-10-05T07:15:44.208Z,45.12
2022-10-05T07:16:44.194Z,59.78
2022-10-05T07:17:44.186Z,49.47
2022-10-05T07:18:44.163Z,53.33
2022-10-05T07:19:44.101Z,56.40
2022-10-05T07:20:48.906Z,67.51
2022-10-05T07:21:44.456Z,64.13
2022-10-05T07:22:44.125Z,70.09
2022-10-05T07:23:44.090Z,72.83
2022-10-05T07:24:44.121Z,72.99
2022-10-05T07:25:44.231Z,66.55
2022-10-05T07:26:44.478Z,60.59
2022-10-05T07:27:47.082Z,65.58
2022-10-05T07:28:44.117Z,58.65
2022-10-05T07:29:43.980Z,69.93
2022-10-05T07:30:44.126Z,71.38
2022-10-05T07:31:44.004Z,46.73
2022-10-05T07:32:47.713Z,52.69
2022-10-05T07:34:07.704Z,72.19
2022-10-05T07:34:43.940Z,48.34
2022-10-05T07:35:43.894Z,71.54
2022-10-05T07:36:44.334Z,44.15
2022-10-05T07:37:43.862Z,45.76
2022-10-05T07:38:43.897Z,59.94
2022-10-05T07:39:59.472Z,52.05
2022-10-05T07:40:43.860Z,78.63
2022-10-05T07:41:43.815Z,66.55
2022-10-05T07:42:50.648Z,48.66
2022-10-05T07:44:13.135Z,66.39
2022-10-05T07:44:43.932Z,65.10
2022-10-05T07:45:43.850Z,71.38
2022-10-05T07:46:43.875Z,49.47
2022-10-05T07:47:43.770Z,59.78
2022-10-05T07:48:43.754Z,47.86
2022-10-05T07:49:43.756Z,75.25
2022-10-05T07:50:43.704Z,66.87
2022-10-05T07:51:43.760Z,63.33
2022-10-05T07:52:43.670Z,56.88
2022-10-05T07:53:43.686Z,51.72
2022-10-05T07:54:43.722Z,51.08
2022-10-05T07:55:43.606Z,74.12
2022-10-05T07:56:44.023Z,54.62
2022-10-05T07:57:43.656Z,58.17
2022-10-05T07:58:43.603Z,62.68
2022-10-05T07:59:43.559Z,52.53
2022-10-05T08:00:43.542Z,63.97
2022-10-05T08:01:43.586Z,66.06
2022-10-05T08:02:43.589Z,51.88
2022-10-05T08:03:43.529Z,53.33
2022-10-05T08:04:43.537Z,51.40
2022-10-05T08:05:43.487Z,60.42
2022-10-05T08:06:43.864Z,54.79
2022-10-05T08:07:43.488Z,49.95
2022-10-05T08:08:43.512Z,58.01
2022-10-05T08:09:43.427Z,54.46
2022-10-05T08:10:43.455Z,50.60
2022-10-05T08:11:45.632Z,66.39
2022-10-05T08:12:43.417Z,52.85
2022-10-05T08:13:43.400Z,62.68
2022-10-05T08:14:43.403Z,68.96
2022-10-05T08:15:43.405Z,73.48
2022-10-05T08:16:43.321Z,51.88
2022-10-05T08:17:43.321Z,68.48
2022-10-05T08:18:43.339Z,62.68
2022-10-05T08:19:43.335Z,62.52
2022-10-05T08:20:43.274Z,59.30
2022-10-05T08:21:43.300Z,49.63
2022-10-05T08:22:43.287Z,48.50
2022-10-05T08:23:43.276Z,50.60
2022-10-05T08:24:43.215Z,65.90
2022-10-05T08:25:43.201Z,52.37
2022-10-05T08:26:43.202Z,50.92
2022-10-05T08:27:43.179Z,53.01
2022-10-05T08:28:43.218Z,61.23
2022-10-05T08:29:43.174Z,67.51
2022-10-05T08:30:43.138Z,67.51
2022-10-05T08:31:43.179Z,56.56
2022-10-05T08:32:43.131Z,49.47
2022-10-05T08:33:43.110Z,69.61
2022-10-05T08:34:43.149Z,65.90
2022-10-05T08:35:43.095Z,54.95
2022-10-05T08:36:43.102Z,71.54
2022-10-05T08:37:42.053Z,71.87
2022-10-05T08:38:43.025Z,74.60
2022-10-05T08:39:43.031Z,72.51
2022-10-05T08:40:42.989Z,66.71
2022-10-05T08:41:43.042Z,64.13
2022-10-05T08:42:42.982Z,69.93
2022-10-05T08:43:43.053Z,62.20
2022-10-05T08:44:42.932Z,45.28
2022-10-05T08:45:42.990Z,58.65
2022-10-05T08:46:42.958Z,55.43
2022-10-05T08:47:42.916Z,46.25
2022-10-05T08:48:42.874Z,67.19
2022-10-05T08:49:42.871Z,72.83
2022-10-05T08:50:42.892Z,68.16
2022-10-05T08:51:42.882Z,45.28
2022-10-05T08:52:42.830Z,47.53
2022-10-05T08:53:42.924Z,52.21
2022-10-05T08:54:42.862Z,68.96
2022-10-05T08:55:42.796Z,65.10
2022-10-05T08:56:42.795Z,59.62
2022-10-05T08:57:42.784Z,64.61
2022-10-05T08:58:42.778Z,78.31
2022-10-05T08:59:42.732Z,52.53
2022-10-05T09:00:42.743Z,63.16
2022-10-05T09:01:42.740Z,57.04
2022-10-05T09:02:42.921Z,71.06
2022-10-05T09:03:42.700Z,67.19
2022-10-05T09:04:42.710Z,58.97
2022-10-05T09:05:42.663Z,61.07
2022-10-05T09:06:42.998Z,61.71
2022-10-05T09:07:42.756Z,63.49
2022-10-05T09:08:42.636Z,63.65
2022-10-05T09:09:42.607Z,65.58
2022-10-05T09:10:42.575Z,60.42
2022-10-05T09:11:42.609Z,63.81
2022-10-05T09:12:42.565Z,63.33
2022-10-05T09:13:42.554Z,69.61
2022-10-05T09:14:42.538Z,68.80
2022-10-05T09:15:42.596Z,51.08
2022-10-05T09:16:42.515Z,67.51
2022-10-05T09:17:42.502Z,60.59
2022-10-05T09:18:42.480Z,67.35
2022-10-05T09:19:42.489Z,60.59
2022-10-05T09:20:42.482Z,54.14
2022-10-05T09:21:42.502Z,57.69
2022-10-05T09:22:42.446Z,67.35
2022-10-05T09:23:42.428Z,62.84
2022-10-05T09:24:46.262Z,64.94
2022-10-05T09:25:42.450Z,51.24
2022-10-05T09:26:42.450Z,65.58
2022-10-05T09:27:42.406Z,68.16
2022-10-05T09:28:42.396Z,52.85
2022-10-05T09:29:42.366Z,64.94
2022-10-05T09:30:42.351Z,54.46
2022-10-05T09:31:42.331Z,69.29
2022-10-05T09:32:42.283Z,57.69
2022-10-05T09:33:42.329Z,68.16
2022-10-05T09:34:42.241Z,71.22
2022-10-05T09:35:42.271Z,57.20
2022-10-05T09:36:42.244Z,48.18
2022-10-05T09:37:42.274Z,68.96
2022-10-05T09:38:42.264Z,55.59
2022-10-05T09:39:42.221Z,47.70
2022-10-05T09:40:42.220Z,59.46
2022-10-05T09:41:42.177Z,67.68
2022-10-05T09:42:42.187Z,51.88
2022-10-05T09:43:42.193Z,48.18
2022-10-05T09:44:42.118Z,70.09
2022-10-05T09:45:42.130Z,60.91
2022-10-05T09:46:42.146Z,64.29
2022-10-05T09:47:42.109Z,60.59
2022-10-05T09:48:42.132Z,60.26
2022-10-05T09:49:42.049Z,47.21
2022-10-05T09:50:42.025Z,49.15
2022-10-05T09:51:42.044Z,56.88
2022-10-05T09:52:42.006Z,55.91
2022-10-05T09:53:41.995Z,52.05
2022-10-05T09:54:41.991Z,48.34
2022-10-05T09:55:42.010Z,62.52
2022-10-05T09:56:41.960Z,50.76
2022-10-05T09:57:41.983Z,60.59
2022-10-05T09:58:41.918Z,63.81
2022-10-05T09:59:41.918Z,56.07
2022-10-05T10:00:47.039Z,47.05
2022-10-05T10:01:41.980Z,65.90
2022-10-05T10:02:42.058Z,45.76
2022-10-05T10:03:41.869Z,51.72
2022-10-05T10:04:41.862Z,64.45
2022-10-05T10:05:41.845Z,74.60
2022-10-05T10:06:41.875Z,49.15
2022-10-05T10:07:41.811Z,58.01
2022-10-05T10:08:41.791Z,71.54
2022-10-05T10:09:41.774Z,44.47
2022-10-05T10:10:41.820Z,56.88
2022-10-05T10:11:41.780Z,66.23
2022-10-05T10:12:41.759Z,70.09
2022-10-05T10:13:41.737Z,63.33
2022-10-05T10:14:41.694Z,74.77
2022-10-05T10:15:41.765Z,58.49
2022-10-05T10:16:41.672Z,49.63
2022-10-05T10:17:41.770Z,53.66
2022-10-05T10:18:41.651Z,49.15
2022-10-05T10:19:41.631Z,60.59
2022-10-05T10:20:41.615Z,62.52
2022-10-05T10:21:41.605Z,60.75
2022-10-05T10:22:43.225Z,53.82
2022-10-05T10:23:41.582Z,52.85
2022-10-05T10:24:41.620Z,69.77
2022-10-05T10:25:41.587Z,56.72
2022-10-05T10:26:41.530Z,48.98
2022-10-05T10:27:41.568Z,46.89
2022-10-05T10:28:41.553Z,64.61
2022-10-05T10:29:41.505Z,61.39
2022-10-05T10:30:41.530Z,52.85
2022-10-05T10:31:41.531Z,60.10
2022-10-05T10:32:41.457Z,67.51
2022-10-05T10:33:41.491Z,45.60
2022-10-05T10:34:41.509Z,52.69
2022-10-05T10:35:41.422Z,69.93
2022-10-05T10:36:41.397Z,69.61
2022-10-05T10:37:41.406Z,62.04
2022-10-05T10:38:41.372Z,62.68
2022-10-05T10:39:41.362Z,68.96
2022-10-05T10:40:41.355Z,70.58
2022-10-05T10:41:41.384Z,70.42
2022-10-05T10:42:41.332Z,69.13
2022-10-05T10:43:41.363Z,55.27
2022-10-05T10:44:41.374Z,70.09
2022-10-05T10:45:41.307Z,48.82
2022-10-05T10:46:41.365Z,44.63
2022-10-05T10:47:41.445Z,69.77
2022-10-05T10:48:41.272Z,64.78
2022-10-05T10:49:41.271Z,53.33
2022-10-05T10:50:41.557Z,59.30
2022-10-05T10:51:41.232Z,61.23
2022-10-05T10:52:41.195Z,66.55
2022-10-05T10:53:41.177Z,67.35
2022-10-05T10:54:41.158Z,50.60
2022-10-05T10:55:41.157Z,50.27
2022-10-05T10:56:41.173Z,45.28
2022-10-05T10:57:41.127Z,63.81
2022-10-05T10:58:41.108Z,48.82
2022-10-05T10:59:41.217Z,48.34
2022-10-05T11:00:41.167Z,56.56
2022-10-05T11:01:41.266Z,48.66
2022-10-05T11:02:41.212Z,46.25
2022-10-05T11:03:41.044Z,56.40
2022-10-05T11:04:41.027Z,65.74
2022-10-05T11:05:43.062Z,55.11
2022-10-05T11:06:41.012Z,47.86
2022-10-05T11:07:41.018Z,61.87
2022-10-05T11:08:40.978Z,66.23
2022-10-05T11:09:41.041Z,49.95
2022-10-05T11:10:40.988Z,77.34
2022-10-05T11:11:40.978Z,54.95
2022-10-05T11:12:40.935Z,65.90
2022-10-05T11:13:40.925Z,69.13
2022-10-05T11:14:40.916Z,51.56
2022-10-05T11:15:40.953Z,62.36
2022-10-05T11:16:40.881Z,54.62
2022-10-05T11:17:40.866Z,64.61
2022-10-05T11:18:40.873Z,55.27
2022-10-05T11:19:59.541Z,67.84
2022-10-05T11:20:40.863Z,71.70
2022-10-05T11:21:40.814Z,45.76
2022-10-05T11:22:40.888Z,64.29
2022-10-05T11:23:40.834Z,60.91
2022-10-05T11:24:40.762Z,62.68
2022-10-05T11:25:40.754Z,64.29
2022-10-05T11:26:40.788Z,54.62
2022-10-05T11:27:40.747Z,63.81
2022-10-05T11:28:40.785Z,53.66
2022-10-05T11:29:40.711Z,70.42
2022-10-05T11:30:40.711Z,51.56
2022-10-05T11:31:40.753Z,47.86
2022-10-05T11:32:40.692Z,59.62
2022-10-05T11:33:40.654Z,60.91
2022-10-05T11:34:40.643Z,59.62
2022-10-05T11:35:40.660Z,51.24
2022-10-05T11:36:40.617Z,62.04
2022-10-05T11:37:40.673Z,67.68
2022-10-05T11:38:40.590Z,79.92
2022-10-05T11:39:40.603Z,58.17
2022-10-05T11:40:40.562Z,68.96
2022-10-05T11:41:40.571Z,74.93
2022-10-05T11:42:40.556Z,58.01
2022-10-05T11:43:40.545Z,60.26
2022-10-05T11:44:40.518Z,55.59
2022-10-05T11:45:40.498Z,59.46
2022-10-05T11:46:40.519Z,67.68
2022-10-05T11:47:40.463Z,63.16
2022-10-05T11:48:40.543Z,54.79
2022-10-05T11:49:40.503Z,45.12
2022-10-05T11:50:40.442Z,63.65
2022-10-05T11:51:40.415Z,73.48
2022-10-05T11:52:40.389Z,52.69
2022-10-05T11:53:40.429Z,61.71
2022-10-05T11:55:05.935Z,68.16
2022-10-05T11:55:40.377Z,47.86
2022-10-05T11:56:40.411Z,67.03
2022-10-05T11:57:40.336Z,65.26
2022-10-05T11:58:40.312Z,56.40
2022-10-05T11:59:40.334Z,51.08
2022-10-05T12:00:40.291Z,58.81
2022-10-05T12:01:40.297Z,52.53
2022-10-05T12:02:42.943Z,50.76
2022-10-05T12:03:40.422Z,53.01
2022-10-05T12:04:40.235Z,56.72
2022-10-05T12:05:40.240Z,56.72
2022-10-05T12:06:40.264Z,65.26
2022-10-05T12:07:40.208Z,46.73
2022-10-05T12:08:40.222Z,65.58
2022-10-05T12:09:40.159Z,53.66
2022-10-05T12:10:40.192Z,67.35
2022-10-05T12:11:40.170Z,72.03
2022-10-05T12:12:40.155Z,72.99
2022-10-05T12:13:40.159Z,60.42
2022-10-05T12:14:40.122Z,68.16
2022-10-05T12:15:40.128Z,59.62
2022-10-05T12:16:40.195Z,59.78
2022-10-05T12:17:40.148Z,67.51
2022-10-05T12:18:40.115Z,67.35
2022-10-05T12:19:40.070Z,53.33
2022-10-05T12:20:40.040Z,58.97
2022-10-05T12:21:40.060Z,65.10
2022-10-05T12:22:40.071Z,51.88
2022-10-05T12:23:40.039Z,60.91
2022-10-05T12:24:40.026Z,70.74
2022-10-05T12:25:39.970Z,58.81
2022-10-05T12:26:39.920Z,60.91
2022-10-05T12:27:39.917Z,60.10
2022-10-05T12:28:39.952Z,53.50
2022-10-05T12:29:39.923Z,68.96
2022-10-05T12:30:39.864Z,54.14
2022-10-05T12:31:39.998Z,51.88
2022-10-05T12:32:39.961Z,56.56
2022-10-05T12:33:39.869Z,67.68
2022-10-05T12:34:39.912Z,53.17
2022-10-05T12:35:48.681Z,68.32
2022-10-05T12:37:03.027Z,52.05
2022-10-05T12:37:39.826Z,63.81
2022-10-05T12:38:39.843Z,62.04
2022-10-05T12:39:39.738Z,70.58
2022-10-05T12:40:39.759Z,54.30
2022-10-05T12:41:39.711Z,61.23
2022-10-05T12:42:41.985Z,55.59
2022-10-05T12:43:39.738Z,53.33
2022-10-05T12:44:39.716Z,61.07
2022-10-05T12:45:39.730Z,59.62
2022-10-05T12:46:39.713Z,59.62
2022-10-05T12:47:39.628Z,53.98
2022-10-05T12:48:39.635Z,51.24
2022-10-05T12:49:39.641Z,58.33
2022-10-05T12:50:38.588Z,68.00
2022-10-05T12:51:39.587Z,50.76
2022-10-05T12:52:39.619Z,69.61